Aérodrome :
LOGIN :

S'inscrire | Disclaimer

   EN    FR    IT 

 










Légende :    VFR   VFR Marginal   IFR   IFR Intensif   IFR Très Intensif
Visi : 
Plafond : 
>= 8 km
>= 3000ft
5 à 8 km
1000 à 3000 ft
1500m à 5 km
500 à 1000 ft
800 à 1500m
200 à 500 ft
< 800m
< 200 ft
Symboles :   Orages  Brouillard  Fortes neiges  Fortes précipitations  Vent > 20 kt
SIGMETs :   Divers  Orages  Givrage  Turbulence  Onde Orograph.  Cendres Volcan.







- Altitude de l'aérodrome : 1682 ft
- Code IATA : VIT


LEVT - Vitoria Gasteiz

DERNIER METAR :
  • 181130Z 00000KT 9999 FEW023 BKN028 09/09 Q1024

METARs EXPIRÉS :
  • 181100Z 00000KT 9999 FEW023 BKN027 08/08 Q1025
  • 181030Z 00000KT 8000 VCFG FEW022 BKN027 07/07 Q1025
  • 181000Z 00000KT 8000 VCFG FEW019 BKN026 06/06 Q1025
  • 180930Z 00000KT 6000 VCFG FEW016 BKN024 05/05 Q1025

TAF TAF LEVT
Valide du 18 à 12h jusqu'au 19 à 12h UTC


181100Z 1812/1912 VRB02KT 9999 FEW005 TX12/1814Z TN02/1906Z
PROB40
TEMPO 1815/1818 03010KT
TEMPO 1820/1906 0350 FZFG VV001
Pas de NOTAMs connus pour ce terrain.



MET'MAP, la Météo Aéronautique d'un coup d'oeil ! - Copyright ORBIFLY Décembre 2007 - Disclaimer

ORBIFLY MET'MAP TEAM :

Programmation & Développement : Alexandra Zaïnal
Conception & Développement : Baudouin d'Aumeries
Co-Programmation & Développement : Marc-Olivier Méhu
Soutien technique & logistique : Manuel Goepfert

Contact : metmap@orbifly.com




SOURCES & CREDITS :

   NOAA